createdAt,value
2022-11-08T00:03:03.135Z,8.72
2022-11-08T00:08:23.667Z,8.71
2022-11-08T00:13:43.637Z,8.66
2022-11-08T00:18:46.726Z,8.60
2022-11-08T00:23:48.290Z,8.55
2022-11-08T00:28:49.800Z,8.52
2022-11-08T00:33:51.250Z,8.46
2022-11-08T00:38:52.719Z,8.38
2022-11-08T00:43:54.198Z,8.33
2022-11-08T00:48:55.686Z,8.26
2022-11-08T00:53:57.154Z,8.21
2022-11-08T00:58:59.375Z,8.13
2022-11-08T01:04:00.893Z,8.06
2022-11-08T01:09:03.286Z,7.99
2022-11-08T01:14:04.955Z,7.89
2022-11-08T01:19:06.530Z,7.82
2022-11-08T01:24:08.556Z,7.75
2022-11-08T01:29:10.027Z,7.67
2022-11-08T01:34:11.491Z,7.60
2022-11-08T01:39:13.006Z,7.52
2022-11-08T01:44:17.145Z,7.46
2022-11-08T01:49:32.053Z,7.37
2022-11-08T01:54:43.011Z,7.31
2022-11-08T01:59:47.460Z,7.24
2022-11-08T02:04:49.178Z,7.15
2022-11-08T02:09:50.707Z,7.11
2022-11-08T02:14:52.279Z,7.04
2022-11-08T02:19:54.024Z,6.99
2022-11-08T02:24:58.389Z,6.95
2022-11-08T02:29:59.901Z,6.85
2022-11-08T02:35:01.624Z,6.73
2022-11-08T02:40:04.224Z,6.66
2022-11-08T02:45:07.106Z,6.60
2022-11-08T02:50:09.015Z,6.54
2022-11-08T02:55:10.522Z,6.49
2022-11-08T03:00:12.908Z,6.43
2022-11-08T03:05:14.378Z,6.38
2022-11-08T03:10:16.444Z,6.33
2022-11-08T03:15:17.990Z,6.28
2022-11-08T03:20:19.543Z,6.26
2022-11-08T03:25:21.048Z,6.29
2022-11-08T03:30:22.556Z,6.38
2022-11-08T03:35:24.410Z,6.44
2022-11-08T03:40:26.569Z,6.48
2022-11-08T03:45:28.059Z,6.42
2022-11-08T03:50:29.554Z,6.37
2022-11-08T03:55:31.353Z,6.31
2022-11-08T04:00:35.868Z,6.26
2022-11-08T04:05:37.330Z,6.20
2022-11-08T04:10:38.868Z,6.16
2022-11-08T04:15:40.466Z,6.14
2022-11-08T04:21:03.073Z,6.15
2022-11-08T04:26:06.994Z,6.23
2022-11-08T04:31:11.946Z,6.16
2022-11-08T04:36:16.354Z,6.06
2022-11-08T04:41:20.515Z,5.99
2022-11-08T04:46:25.984Z,5.93
2022-11-08T04:51:31.095Z,5.93
2022-11-08T04:56:33.163Z,5.95
2022-11-08T05:01:34.849Z,5.97
2022-11-08T05:06:36.408Z,6.01
2022-11-08T05:11:37.921Z,6.05
2022-11-08T05:16:39.377Z,6.10
2022-11-08T05:21:59.319Z,6.11
2022-11-08T05:27:00.797Z,6.14
2022-11-08T05:32:02.283Z,6.17
2022-11-08T05:37:03.833Z,6.23
2022-11-08T05:42:05.617Z,6.22
2022-11-08T05:47:07.151Z,6.20
2022-11-08T05:52:08.620Z,6.19
2022-11-08T05:57:10.106Z,6.17
2022-11-08T06:02:11.691Z,6.21
2022-11-08T06:07:13.351Z,6.24
2022-11-08T06:12:14.825Z,6.27
2022-11-08T06:17:16.318Z,6.22
2022-11-08T06:22:17.809Z,6.19
2022-11-08T06:27:19.258Z,6.20
2022-11-08T06:32:21.050Z,6.29
2022-11-08T06:37:22.501Z,6.40
2022-11-08T06:42:24.241Z,6.55
2022-11-08T06:47:25.785Z,6.77
2022-11-08T06:52:27.313Z,6.93
2022-11-08T06:57:28.846Z,7.08
2022-11-08T07:02:30.473Z,7.27
2022-11-08T07:07:32.038Z,7.56
2022-11-08T07:12:33.494Z,7.85
2022-11-08T07:17:38.813Z,8.12
2022-11-08T07:22:40.515Z,9.43
2022-11-08T07:27:41.999Z,10.01
2022-11-08T07:32:43.450Z,10.33
2022-11-08T07:37:44.998Z,10.33
2022-11-08T07:48:12.354Z,10.66
2022-11-08T07:53:14.535Z,10.42
2022-11-08T07:58:16.695Z,10.24
2022-11-08T08:03:19.360Z,10.13
2022-11-08T08:08:21.547Z,10.13
2022-11-08T08:13:23.069Z,10.10
2022-11-08T08:18:24.521Z,10.18
2022-11-08T08:23:26.056Z,11.29
2022-11-08T08:28:27.610Z,12.13
2022-11-08T08:33:34.449Z,12.07
2022-11-08T08:38:41.463Z,12.29
2022-11-08T08:43:45.712Z,12.32
2022-11-08T08:48:47.176Z,12.49
2022-11-08T08:53:48.655Z,12.52
2022-11-08T09:04:11.801Z,13.51
2022-11-08T09:09:13.238Z,13.73
2022-11-08T09:14:14.730Z,14.17
2022-11-08T09:19:16.247Z,14.82
2022-11-08T09:24:18.041Z,15.15
2022-11-08T09:29:19.592Z,16.10
2022-11-08T09:34:21.861Z,16.01
2022-11-08T09:39:23.500Z,15.63
2022-11-08T09:44:43.610Z,14.58
2022-11-08T09:49:50.328Z,13.99
2022-11-08T09:55:00.621Z,15.46
2022-11-08T10:00:05.840Z,15.97
2022-11-08T10:05:15.295Z,17.09
2022-11-08T10:10:50.892Z,18.36
2022-11-08T10:16:03.844Z,18.44
2022-11-08T10:21:22.974Z,18.45
2022-11-08T10:26:42.689Z,20.00
2022-11-08T10:31:47.816Z,21.43
2022-11-08T10:36:54.776Z,22.82
2022-11-08T10:42:08.154Z,24.22
2022-11-08T10:47:25.001Z,23.21
2022-11-08T10:52:39.952Z,22.42
2022-11-08T10:57:45.212Z,22.35
2022-11-08T11:02:50.767Z,22.62
2022-11-08T11:08:02.033Z,21.48
2022-11-08T11:13:10.175Z,20.41
2022-11-08T11:18:32.722Z,20.79
2022-11-08T11:23:42.336Z,21.78
2022-11-08T11:29:05.536Z,22.66
2022-11-08T11:34:18.973Z,22.37
2022-11-08T11:39:39.634Z,21.27
2022-11-08T11:45:28.739Z,21.21
2022-11-08T11:50:39.322Z,21.17
2022-11-08T11:55:55.734Z,21.28
2022-11-08T12:01:10.470Z,21.06
2022-11-08T12:06:44.423Z,20.83
2022-11-08T12:12:08.977Z,20.27
2022-11-08T12:17:26.775Z,19.76
2022-11-08T12:22:45.579Z,19.37
2022-11-08T12:27:52.439Z,19.28
2022-11-08T12:33:13.024Z,19.17
2022-11-08T12:38:27.911Z,18.99
2022-11-08T12:43:46.543Z,18.94
2022-11-08T12:49:20.465Z,19.06
2022-11-08T12:54:37.253Z,18.65
2022-11-08T12:59:43.379Z,18.31
2022-11-08T13:05:18.859Z,18.19
2022-11-08T13:10:43.294Z,18.08
2022-11-08T13:16:32.959Z,18.02
2022-11-08T13:21:38.458Z,18.11
2022-11-08T13:26:43.516Z,18.16
2022-11-08T13:31:57.128Z,18.19
2022-11-08T13:37:17.421Z,18.23
2022-11-08T13:42:18.863Z,18.17
2022-11-08T13:47:32.367Z,18.20
2022-11-08T13:53:01.149Z,18.20
2022-11-08T13:58:02.745Z,18.15
2022-11-08T14:03:33.132Z,18.14
2022-11-08T14:08:42.090Z,18.16
2022-11-08T14:14:12.626Z,18.14
2022-11-08T14:19:19.057Z,18.07
2022-11-08T14:24:24.541Z,18.03
2022-11-08T14:29:26.151Z,18.04
2022-11-08T14:34:38.031Z,17.94
2022-11-08T14:39:39.486Z,17.82
2022-11-08T14:44:44.080Z,17.67
2022-11-08T14:49:47.947Z,17.52
2022-11-08T14:54:59.987Z,17.44
2022-11-08T15:00:13.358Z,17.37
2022-11-08T15:05:30.384Z,17.23
2022-11-08T15:10:32.103Z,17.10
2022-11-08T15:15:34.282Z,16.98
2022-11-08T15:20:35.738Z,16.82
2022-11-08T15:25:38.309Z,16.60
2022-11-08T15:30:43.245Z,16.33
2022-11-08T15:35:46.970Z,16.08
2022-11-08T15:40:57.833Z,15.91
2022-11-08T15:46:01.155Z,15.64
2022-11-08T15:51:04.352Z,15.46
2022-11-08T15:56:06.020Z,15.31
2022-11-08T16:01:17.915Z,15.08
2022-11-08T16:06:19.506Z,14.87
2022-11-08T16:11:23.566Z,14.65
2022-11-08T16:16:25.200Z,14.46
2022-11-08T16:21:26.676Z,14.16
2022-11-08T16:26:28.308Z,14.02
2022-11-08T16:31:29.808Z,13.96
2022-11-08T16:36:31.385Z,13.90
2022-11-08T16:41:33.161Z,13.83
2022-11-08T16:46:34.775Z,13.76
2022-11-08T16:51:36.221Z,13.65
2022-11-08T16:56:37.653Z,13.57
2022-11-08T17:01:40.100Z,13.52
2022-11-08T17:06:41.902Z,13.45
2022-11-08T17:11:43.491Z,13.35
2022-11-08T17:16:44.964Z,13.28
2022-11-08T17:21:46.459Z,13.12
2022-11-08T17:26:48.090Z,13.03
2022-11-08T17:31:50.092Z,13.05
2022-11-08T17:36:52.958Z,13.02
2022-11-08T17:41:54.490Z,12.92
2022-11-08T17:46:56.041Z,12.92
2022-11-08T17:51:57.547Z,12.93
2022-11-08T17:56:59.150Z,12.92
2022-11-08T18:02:00.986Z,12.86
2022-11-08T18:07:02.688Z,12.80
2022-11-08T18:12:04.692Z,12.87
2022-11-08T18:17:06.178Z,12.99
2022-11-08T18:22:07.738Z,13.09
2022-11-08T18:27:09.664Z,13.15
2022-11-08T18:32:11.109Z,13.14
2022-11-08T18:37:12.530Z,13.07
2022-11-08T18:42:14.020Z,13.07
2022-11-08T18:47:15.462Z,13.02
2022-11-08T18:52:16.940Z,13.07
2022-11-08T18:57:19.730Z,13.10
2022-11-08T19:02:22.103Z,12.98
2022-11-08T19:07:24.335Z,12.76
2022-11-08T19:12:28.783Z,12.68
2022-11-08T19:17:31.903Z,12.68
2022-11-08T19:22:33.381Z,12.60
2022-11-08T19:27:34.906Z,12.60
2022-11-08T19:32:36.365Z,12.62
2022-11-08T19:37:37.895Z,12.65
2022-11-08T19:42:42.581Z,12.66
2022-11-08T19:47:44.168Z,12.67
2022-11-08T19:52:45.618Z,12.73
2022-11-08T19:57:47.508Z,12.83
2022-11-08T20:02:49.075Z,12.89
2022-11-08T20:07:50.608Z,12.92
2022-11-08T20:12:52.061Z,12.92
2022-11-08T20:17:53.572Z,12.86
2022-11-08T20:22:55.109Z,12.80
2022-11-08T20:27:56.569Z,12.83
2022-11-08T20:32:58.068Z,12.79
2022-11-08T20:37:59.505Z,12.83
2022-11-08T20:43:00.966Z,12.80
2022-11-08T20:48:02.952Z,12.70
2022-11-08T20:53:04.617Z,12.77
2022-11-08T20:58:06.101Z,12.87
2022-11-08T21:03:07.664Z,12.91
2022-11-08T21:08:57.859Z,12.91
2022-11-08T21:13:34.077Z,12.90
2022-11-08T21:18:36.780Z,12.95
2022-11-08T21:23:39.998Z,12.92
2022-11-08T21:28:41.797Z,12.79
2022-11-08T21:33:43.626Z,12.57
2022-11-08T21:38:45.536Z,12.42
2022-11-08T21:43:47.679Z,12.43
2022-11-08T21:49:00.732Z,12.61
2022-11-08T21:54:02.985Z,12.76
2022-11-08T21:59:04.515Z,12.83
2022-11-08T22:04:05.985Z,12.88
2022-11-08T22:09:07.475Z,12.94
2022-11-08T22:14:09.004Z,13.00
2022-11-08T22:19:10.671Z,12.90
2022-11-08T22:24:23.060Z,12.75
2022-11-08T22:29:24.577Z,12.81
2022-11-08T22:34:26.113Z,12.88
2022-11-08T22:39:27.589Z,12.87
2022-11-08T22:44:29.136Z,12.75
2022-11-08T22:49:30.587Z,12.68
2022-11-08T22:54:32.041Z,12.76
2022-11-08T22:59:33.486Z,12.85
2022-11-08T23:04:34.895Z,12.78
2022-11-08T23:09:36.370Z,12.79
2022-11-08T23:14:56.219Z,12.84
2022-11-08T23:20:16.034Z,12.78
2022-11-08T23:25:17.511Z,12.78
2022-11-08T23:30:37.791Z,12.71
2022-11-08T23:35:59.314Z,12.75
2022-11-08T23:41:19.114Z,12.80
2022-11-08T23:46:20.558Z,12.91
2022-11-08T23:51:22.023Z,12.98
2022-11-08T23:56:26.071Z,12.99
